Fernhurst, United Kingdom
Current Conditions -  °F | °C
As of 1:20 PM on Sunday 23 Nov 2014 (Local Time) from EGLF Reporting Station
Light Rain Light Rain  
Wind Chill: 40°   Ceiling: Unl
Heat Index: 45°   Visibility: 6mi
Dew Point: 45°   Wind: 9mph
Humidity: 100%   Direction: 350°N
Pressure: 30"   Gusts: NA
Location:  51.05°N, 0.72°W
Report Text: EGLF 231320Z 35008KT 9000 -RA FEW008 SCT012 07/07 Q1016
Loading
Personal Weather Stations






























Interactive Weather Map New forecast layout! Learn more

10-Day Weather Forecast

Advertisements
Track Severe Weather on mobile